Detall de PIREP

Printer-friendly versionPDF version

[2012/11/24 07:52:00]
Flight IATA:CT3213
Pilot Number:012
Company ICAO:CAT
Aircraft Type:B752/E
PAX:138
Aircraft Registration:PAX
Departing Airport: LHBP
Destination Airport: LEPA
Alternate Airport:LEBL
Online: VATSIM
Route:GILEP/M080F360 UP976 DETSA/M080F370 UM984 DIVKO UN852 VERSO UL129 LUNIK
Flight Level:F370
No Slew and time accel
No pause
Crash detect
Detect pilot in Cockpit between each 30 and 45 minutes
07:52 Zero fuel Weight: 164639 Lbs, Fuel Weight: 26662 Lbs
07:52 VATSIM:LHBP 240700Z VRB02KT 0800 R31L/0700V1500D R31R/0600V1400U FG BKN002 08/08 Q1025 TEMPO 1500 BR
07:52 VATSIM:LEPA 240700Z 00000KT 4000 BR FEW020 10/10 Q1021 NOSIG
07:52 VOICE CATALONIAN
07:53 Parking Brakes off
07:58 Take-off
07:58 Take off Weight: 190480 Lbs
07:58 Wind: 357º @ 002 Knots Heading: 131º
07:58 POS N47º 26´ 17´´ E019º 16´ 14´´
07:58 Gear Up: 182 Knots
07:58 Flaps:2 at 183 Knots
07:58 Flaps:1 at 200 Knots
07:59 Flaps:0 at 203 Knots
08:11 TOC
08:11 Fuel Weight: 22122 Lb
08:13 Wind:309º@059 Knots Heading: 259º Ground Speed: 418 Knots Altitude 38320 ft
08:28 Wind:297º@065 Knots Heading: 261º Ground Speed: 402 Knots Altitude 38307 ft
08:43 Wind:289º@066 Knots Heading: 277º Ground Speed: 388 Knots Altitude 39311 ft
08:58 Wind:291º@059 Knots Heading: 248º Ground Speed: 411 Knots Altitude 39281 ft
09:13 Wind:278º@055 Knots Heading: 220º Ground Speed: 426 Knots Altitude 39294 ft
09:28 Wind:269º@050 Knots Heading: 249º Ground Speed: 407 Knots Altitude 39314 ft
09:43 Wind:252º@052 Knots Heading: 214º Ground Speed: 410 Knots Altitude 39242 ft
09:57 TOD
09:57 Fuel Weight: 10116 Lb
09:58 Wind:231º@036 Knots Heading: 192º Ground Speed: 435 Knots Altitude 35114 ft
10:13 Wind:222º@012 Knots Heading: 179º Ground Speed: 266 Knots Altitude 9301 ft
10:17 Flaps:1 at 231 Knots
10:19 Flaps:2 at 199 Knots
10:23 Flaps:3 at 184 Knots
10:23 Gear Down: 172 Knots
10:23 Flaps:4 at 159 Knots
10:23 Flaps:5 at 147 Knots
10:24 Flaps:6 at 153 Knots
10:26 TouchDown:Rate -213 ft/min Speed: 126 Knots
10:26 VATSIM:LEPA 240930Z 00000KT 9999 FEW025 18/16 Q1022 NOSIG
10:26 Land
10:26 Wind:126º@000 Knots
10:26 Heading: 240º
10:26 Flight Duration: 02:28
10:26 Landing Weight: 172536 Lbs
10:26 POS N39º 32´ 55´´ E002º 44´ 51´´
10:28 Parking brakes on
10:28 Block to Block Duration: 02:35
10:28 Final Fuel: 7735 Lbls
10:28 Spent Fuel: 18926 Lbls
10:28 Flight Length: 949 NM
10:28 TOD Land Length: 143 NM

Exportar CSV

Powered by Drupal - Modified by Danger4k